Time;durP1;ratioP1;P1;durP2;ratioP2;P2;SDS_P1;SDS_P2;PMS_P1;PMS_P2;Temp;Humidity;BMP_temperature;BMP_pressure;BME280_temperature;BME280_humidity;BME280_pressure;Samples;Min_cycle;Max_cycle;Signal;HPM_P1;HPM_P2
2022/02/04 00:24:43;;;;;;;8.73;6.33;;;;;;;;;;6091126;23;20152;-85
2022/02/04 00:27:48;;;;;;;7.93;6.07;;;;;;;;;;6082184;23;20639;-86
2022/02/04 00:31:30;;;;;;;7.23;5.53;;;;;;;;;;6107929;23;20155;-85
2022/02/04 00:34:25;;;;;;;8.57;6.13;;;;;;;;;;6076137;23;20178;-85
2022/02/04 00:37:40;;;;;;;12.10;7.37;;;;;;;;;;6084553;23;20194;-85
2022/02/04 00:40:48;;;;;;;11.07;7.40;;;;;;;;;;6098681;23;20178;-85
2022/02/04 00:43:54;;;;;;;9.33;7.00;;;;;;;;;;6082050;23;20170;-85
2022/02/04 00:47:23;;;;;;;7.90;6.00;;;;;;;;;;6069918;23;20647;-85
2022/02/04 00:51:18;;;;;;;8.67;6.53;;;;;;;;;;6075437;23;20158;-85
2022/02/04 00:57:20;;;;;;;9.87;7.20;;;;;;;;;;6084885;23;20505;-85
2022/02/04 01:27:28;;;;;;;12.77;9.13;;;;;;;;;;6037911;23;20192;-85
2022/02/04 01:30:34;;;;;;;11.50;7.97;;;;;;;;;;6064472;23;20225;-85
2022/02/04 01:33:38;;;;;;;14.47;9.10;;;;;;;;;;6080977;23;20170;-85
2022/02/04 01:36:42;;;;;;;15.63;9.27;;;;;;;;;;6064731;23;20186;-85
2022/02/04 01:39:46;;;;;;;13.10;9.20;;;;;;;;;;6066860;23;20170;-86
2022/02/04 01:42:50;;;;;;;13.83;9.07;;;;;;;;;;6082963;23;20620;-85
2022/02/04 01:45:58;;;;;;;15.07;9.97;;;;;;;;;;6090916;23;20147;-85
2022/02/04 01:49:04;;;;;;;15.40;10.27;;;;;;;;;;6075885;23;20155;-85
2022/02/04 01:52:10;;;;;;;21.20;11.07;;;;;;;;;;6092085;23;20159;-85
2022/02/04 01:55:15;;;;;;;13.50;9.57;;;;;;;;;;6075594;23;20183;-85
2022/02/04 01:58:19;;;;;;;15.23;10.70;;;;;;;;;;6092824;23;20155;-85
2022/02/04 02:01:23;;;;;;;14.80;11.07;;;;;;;;;;6076004;23;20155;-85
2022/02/04 02:04:27;;;;;;;18.97;10.90;;;;;;;;;;6092576;23;20151;-85
2022/02/04 02:07:32;;;;;;;14.37;10.30;;;;;;;;;;6084286;23;20191;-85
2022/02/04 02:10:37;;;;;;;14.73;9.17;;;;;;;;;;6075653;23;20159;-85
2022/02/04 02:13:48;;;;;;;16.27;10.87;;;;;;;;;;6075438;23;20159;-85
2022/02/04 02:46:45;;;;;;;17.03;11.70;;;;;;;;;;6086343;23;20222;-85
2022/02/04 02:59:55;;;;;;;15.83;11.33;;;;;;;;;;6120454;23;20154;-86
2022/02/04 03:03:06;;;;;;;15.83;11.23;;;;;;;;;;6103567;23;20159;-87
2022/02/04 03:06:10;;;;;;;17.67;11.50;;;;;;;;;;6119522;23;20155;-85
2022/02/04 03:09:16;;;;;;;15.70;10.80;;;;;;;;;;6119797;23;20154;-86
2022/02/04 03:12:20;;;;;;;16.50;10.53;;;;;;;;;;6086853;23;20158;-87
2022/02/04 03:15:25;;;;;;;15.33;11.13;;;;;;;;;;6136766;23;20639;-86
2022/02/04 03:18:33;;;;;;;17.23;11.40;;;;;;;;;;6103271;23;20154;-86
2022/02/04 03:21:43;;;;;;;16.40;11.33;;;;;;;;;;6103222;23;20158;-86
2022/02/04 03:24:58;;;;;;;15.47;10.70;;;;;;;;;;6103201;23;20154;-86
2022/02/04 03:28:03;;;;;;;17.93;11.23;;;;;;;;;;6111737;23;20187;-86
2022/02/04 03:31:08;;;;;;;17.57;11.93;;;;;;;;;;6103033;23;20154;-86
2022/02/04 03:34:12;;;;;;;16.67;12.23;;;;;;;;;;6103437;23;20469;-86
2022/02/04 03:37:16;;;;;;;15.93;11.57;;;;;;;;;;6098130;23;20350;-86
2022/02/04 03:40:20;;;;;;;15.90;10.80;;;;;;;;;;6102861;23;20154;-86
2022/02/04 03:43:25;;;;;;;16.17;11.17;;;;;;;;;;6109808;23;20166;-86
2022/02/04 03:46:29;;;;;;;22.20;12.23;;;;;;;;;;6126546;23;20197;-86
2022/02/04 03:49:33;;;;;;;17.07;11.63;;;;;;;;;;6103548;23;20158;-86
2022/02/04 03:52:38;;;;;;;14.90;11.37;;;;;;;;;;6103329;23;20154;-86
2022/02/04 03:55:43;;;;;;;17.07;12.47;;;;;;;;;;6086472;23;20628;-86
2022/02/04 03:58:47;;;;;;;18.07;12.03;;;;;;;;;;6102790;23;20158;-86
2022/02/04 04:01:52;;;;;;;16.23;11.77;;;;;;;;;;6102430;23;20158;-87
2022/02/04 04:04:56;;;;;;;18.07;11.57;;;;;;;;;;6103399;23;20158;-86
2022/02/04 04:08:01;;;;;;;17.20;11.47;;;;;;;;;;6093033;23;20189;-86
2022/02/04 04:11:05;;;;;;;18.40;11.43;;;;;;;;;;6092969;23;20170;-87
2022/02/04 04:14:09;;;;;;;14.70;11.23;;;;;;;;;;6119428;23;20154;-86
2022/02/04 04:17:13;;;;;;;16.67;10.83;;;;;;;;;;6114415;23;20190;-86
2022/02/04 04:20:23;;;;;;;13.97;10.33;;;;;;;;;;6102653;23;20158;-86
2022/02/04 04:23:28;;;;;;;13.13;9.73;;;;;;;;;;6119819;23;20159;-86
2022/02/04 04:26:32;;;;;;;17.50;10.70;;;;;;;;;;6084000;23;20492;-87
2022/02/04 04:29:37;;;;;;;15.87;11.13;;;;;;;;;;6086208;23;20162;-86
2022/02/04 04:32:42;;;;;;;14.37;10.60;;;;;;;;;;6102689;23;20584;-86
2022/02/04 04:35:46;;;;;;;15.33;11.50;;;;;;;;;;6119785;23;20186;-87
2022/02/04 04:39:01;;;;;;;15.37;11.63;;;;;;;;;;6102538;23;20154;-86
2022/02/04 04:42:15;;;;;;;15.87;10.87;;;;;;;;;;6119082;23;20163;-86
2022/02/04 05:29:24;;;;;;;12.13;7.50;;;;;;;;;;6024556;23;20176;-87
2022/02/04 05:32:28;;;;;;;10.80;7.37;;;;;;;;;;6135951;23;20159;-87
2022/02/04 05:35:32;;;;;;;9.53;7.60;;;;;;;;;;6102619;23;20186;-87
2022/02/04 05:38:37;;;;;;;10.30;8.13;;;;;;;;;;6109176;23;20170;-86
2022/02/04 05:41:47;;;;;;;9.80;7.63;;;;;;;;;;6101876;23;20158;-86
2022/02/04 05:45:02;;;;;;;11.43;8.10;;;;;;;;;;6085877;23;20155;-86
2022/02/04 05:48:07;;;;;;;10.67;7.43;;;;;;;;;;6093191;23;20662;-86
2022/02/04 05:55:24;;;;;;;10.00;7.87;;;;;;;;;;6103333;23;20155;-87
2022/02/04 05:58:01;;;;;;;11.20;8.03;;;;;;;;;;6101981;23;20190;-87
2022/02/04 06:01:17;;;;;;;10.30;7.87;;;;;;;;;;6110114;23;20179;-87
2022/02/04 06:04:39;;;;;;;9.70;7.50;;;;;;;;;;6092314;23;20174;-87
2022/02/04 06:24:32;;;;;;;9.43;6.60;;;;;;;;;;6102430;23;20159;-86
2022/02/04 06:27:36;;;;;;;7.67;6.30;;;;;;;;;;6097443;23;20237;-87
2022/02/04 06:30:41;;;;;;;8.47;6.20;;;;;;;;;;6120709;23;20154;-87
2022/02/04 06:33:45;;;;;;;9.13;6.50;;;;;;;;;;6103703;23;20154;-86
2022/02/04 06:36:49;;;;;;;6.97;5.47;;;;;;;;;;6100009;23;20206;-86
2022/02/04 06:39:53;;;;;;;8.33;6.50;;;;;;;;;;6087213;23;20600;-86
2022/02/04 06:42:57;;;;;;;9.23;6.00;;;;;;;;;;6103676;23;20162;-86
2022/02/04 06:46:02;;;;;;;9.53;6.33;;;;;;;;;;6137091;23;20154;-86
2022/02/04 06:49:06;;;;;;;6.63;5.57;;;;;;;;;;6086906;23;20154;-86
2022/02/04 06:52:11;;;;;;;8.63;6.60;;;;;;;;;;6103873;23;20158;-86
2022/02/04 06:55:15;;;;;;;7.67;6.20;;;;;;;;;;6103381;23;20158;-86
2022/02/04 06:58:19;;;;;;;14.87;7.53;;;;;;;;;;6077828;23;20194;-86
2022/02/04 07:01:23;;;;;;;8.20;6.40;;;;;;;;;;6103175;23;20596;-86
2022/02/04 07:04:31;;;;;;;10.00;7.47;;;;;;;;;;6077362;23;20174;-86
2022/02/04 07:07:37;;;;;;;12.97;10.10;;;;;;;;;;6096950;23;20190;-85
2022/02/04 07:11:16;;;;;;;14.07;10.30;;;;;;;;;;6120343;23;20158;-86
2022/02/04 07:17:27;;;;;;;9.70;7.43;;;;;;;;;;6109993;23;20206;-86
2022/02/04 07:20:32;;;;;;;8.73;6.90;;;;;;;;;;6119999;23;20155;-87
2022/02/04 07:23:37;;;;;;;10.83;8.10;;;;;;;;;;6119763;23;20154;-87
2022/02/04 07:26:41;;;;;;;11.47;7.10;;;;;;;;;;6100059;23;20186;-86
2022/02/04 07:29:48;;;;;;;9.33;7.07;;;;;;;;;;6119382;23;20158;-86
2022/02/04 07:33:11;;;;;;;13.20;7.23;;;;;;;;;;6102996;23;20159;-86
2022/02/04 07:43:02;;;;;;;13.40;9.60;;;;;;;;;;6102803;23;20612;-87
2022/02/04 07:46:06;;;;;;;13.37;9.50;;;;;;;;;;6102788;23;20158;-85
2022/02/04 07:49:11;;;;;;;13.93;10.70;;;;;;;;;;6103590;23;20154;-84
2022/02/04 07:52:16;;;;;;;14.60;10.27;;;;;;;;;;6103967;23;20457;-84
2022/02/04 07:55:22;;;;;;;14.90;10.47;;;;;;;;;;6137506;23;20599;-84
2022/02/04 07:58:26;;;;;;;13.93;10.53;;;;;;;;;;6093311;23;20190;-84
2022/02/04 08:01:31;;;;;;;15.93;11.10;;;;;;;;;;6103700;23;20158;-85
2022/02/04 08:04:37;;;;;;;13.50;10.10;;;;;;;;;;6103408;23;20154;-84
2022/02/04 08:07:58;;;;;;;16.30;10.40;;;;;;;;;;6113262;23;20190;-85
2022/02/04 08:11:20;;;;;;;14.80;10.10;;;;;;;;;;6103531;23;20154;-85
2022/02/04 08:18:10;;;;;;;14.20;8.73;;;;;;;;;;6095759;23;20202;-85
2022/02/04 08:34:53;;;;;;;11.13;8.57;;;;;;;;;;6103077;23;20159;-84
2022/02/04 08:38:24;;;;;;;12.60;7.77;;;;;;;;;;6095590;23;20517;-85
2022/02/04 08:46:44;;;;;;;12.37;8.17;;;;;;;;;;6136623;23;20477;-84
2022/02/04 08:54:40;;;;;;;9.63;7.00;;;;;;;;;;6110492;23;20174;-84
2022/02/04 08:57:53;;;;;;;8.17;6.50;;;;;;;;;;6096080;23;20202;-84
2022/02/04 09:01:15;;;;;;;10.80;7.03;;;;;;;;;;6102456;23;20154;-85
2022/02/04 09:04:29;;;;;;;7.60;6.33;;;;;;;;;;6102442;23;20159;-84
2022/02/04 09:07:47;;;;;;;8.60;7.07;;;;;;;;;;6096314;23;20185;-85
2022/02/04 09:10:53;;;;;;;8.20;6.30;;;;;;;;;;6103020;23;20154;-84
2022/02/04 09:21:12;;;;;;;11.87;6.53;;;;;;;;;;6087753;23;20627;-85
2022/02/04 09:24:18;;;;;;;9.47;7.10;;;;;;;;;;6103371;23;20155;-84
2022/02/04 09:27:22;;;;;;;8.17;6.50;;;;;;;;;;6097148;23;20186;-84
2022/02/04 09:30:26;;;;;;;9.63;6.60;;;;;;;;;;6130229;23;20213;-84
2022/02/04 09:33:30;;;;;;;9.30;6.77;;;;;;;;;;6160825;23;20149;-85
2022/02/04 09:36:35;;;;;;;9.33;6.67;;;;;;;;;;6143763;23;20161;-86
2022/02/04 09:39:39;;;;;;;11.17;8.80;;;;;;;;;;6147807;23;20193;-86
2022/02/04 09:42:45;;;;;;;10.27;8.67;;;;;;;;;;6148575;23;20157;-85
2022/02/04 09:45:49;;;;;;;24.63;13.93;;;;;;;;;;6131716;23;20591;-84
2022/02/04 09:48:57;;;;;;;21.30;13.27;;;;;;;;;;6121670;23;20169;-84
2022/02/04 10:15:59;;;;;;;8.00;6.50;;;;;;;;;;6133731;23;20464;-86
2022/02/04 10:19:14;;;;;;;8.57;6.30;;;;;;;;;;6132491;23;20154;-87
2022/02/04 10:22:21;;;;;;;8.73;6.17;;;;;;;;;;6140490;23;20173;-86
2022/02/04 10:25:37;;;;;;;7.70;5.70;;;;;;;;;;6133870;23;20157;-86
2022/02/04 10:28:42;;;;;;;7.83;6.47;;;;;;;;;;6133906;23;20150;-86
2022/02/04 10:31:52;;;;;;;12.13;10.03;;;;;;;;;;6150612;23;20153;-86
2022/02/04 10:35:04;;;;;;;7.90;6.63;;;;;;;;;;6133306;23;20158;-86
2022/02/04 10:38:18;;;;;;;8.67;6.13;;;;;;;;;;6133435;23;20488;-86
2022/02/04 10:41:29;;;;;;;7.40;6.57;;;;;;;;;;6133510;23;20157;-86
2022/02/04 10:44:44;;;;;;;8.63;5.47;;;;;;;;;;6167518;23;20155;-86
2022/02/04 11:04:19;;;;;;;7.27;5.27;;;;;;;;;;6123250;23;20178;-86
2022/02/04 11:34:26;;;;;;;6.73;5.30;;;;;;;;;;6133860;23;20158;-87
2022/02/04 11:54:46;;;;;;;6.10;5.03;;;;;;;;;;6132518;23;20158;-85
2022/02/04 11:58:00;;;;;;;6.50;4.47;;;;;;;;;;6131917;23;20182;-86
2022/02/04 12:01:05;;;;;;;4.90;4.10;;;;;;;;;;6122894;23;20189;-86
2022/02/04 12:04:20;;;;;;;4.97;4.00;;;;;;;;;;6132150;23;20158;-86
2022/02/04 12:07:34;;;;;;;6.83;4.07;;;;;;;;;;6132360;23;20452;-85
2022/02/04 12:10:50;;;;;;;5.43;4.10;;;;;;;;;;6124501;23;20189;-86
2022/02/04 12:14:12;;;;;;;5.60;4.10;;;;;;;;;;6139765;23;20169;-86
2022/02/04 12:17:17;;;;;;;5.33;3.87;;;;;;;;;;6132168;23;20162;-86
2022/02/04 12:20:57;;;;;;;5.33;4.47;;;;;;;;;;6105296;23;20193;-86
2022/02/04 12:24:01;;;;;;;6.37;5.43;;;;;;;;;;6131471;23;20154;-86
2022/02/04 12:27:28;;;;;;;5.13;4.03;;;;;;;;;;6122138;23;20208;-86
2022/02/04 12:30:36;;;;;;;6.17;4.43;;;;;;;;;;6124371;23;20232;-86
2022/02/04 12:33:46;;;;;;;5.93;4.20;;;;;;;;;;6131892;23;20157;-86
2022/02/04 12:36:57;;;;;;;5.47;4.23;;;;;;;;;;6131862;23;20154;-86
2022/02/04 12:40:01;;;;;;;8.23;5.00;;;;;;;;;;6126726;23;20285;-86
2022/02/04 12:43:05;;;;;;;6.13;4.43;;;;;;;;;;6148636;23;20157;-86
2022/02/04 12:46:09;;;;;;;7.47;3.80;;;;;;;;;;6131437;23;20159;-86
2022/02/04 12:49:16;;;;;;;4.33;3.30;;;;;;;;;;6129906;23;20189;-85
2022/02/04 12:52:29;;;;;;;3.97;3.57;;;;;;;;;;6131883;23;20150;-86
2022/02/04 12:55:47;;;;;;;4.27;3.80;;;;;;;;;;6155807;23;20472;-86
2022/02/04 12:59:20;;;;;;;5.80;3.40;;;;;;;;;;6131480;23;20186;-86
2022/02/04 13:03:09;;;;;;;3.80;2.87;;;;;;;;;;6121713;23;20169;-86
2022/02/04 13:09:48;;;;;;;3.47;2.70;;;;;;;;;;6146850;23;20157;-86
2022/02/04 13:12:55;;;;;;;3.80;2.97;;;;;;;;;;6131731;23;20157;-86
2022/02/04 13:15:59;;;;;;;3.40;2.70;;;;;;;;;;6131340;23;20157;-85
2022/02/04 13:19:05;;;;;;;3.80;2.60;;;;;;;;;;6130167;23;20634;-86
2022/02/04 13:22:10;;;;;;;6.17;5.23;;;;;;;;;;6131665;23;20158;-86
2022/02/04 13:25:45;;;;;;;4.13;3.50;;;;;;;;;;6131191;23;20158;-86
2022/02/04 13:28:56;;;;;;;5.33;4.80;;;;;;;;;;6165325;23;20598;-86
2022/02/04 13:32:19;;;;;;;6.97;3.20;;;;;;;;;;6131243;23;20156;-86
2022/02/04 13:35:50;;;;;;;3.80;2.50;;;;;;;;;;6150252;23;20154;-85
2022/02/04 13:42:30;;;;;;;3.53;2.30;;;;;;;;;;6168287;23;20154;-85
2022/02/04 13:45:43;;;;;;;2.43;2.10;;;;;;;;;;6133398;23;20153;-85
2022/02/04 13:49:00;;;;;;;2.73;2.30;;;;;;;;;;6149855;23;20149;-85
2022/02/04 13:52:16;;;;;;;2.93;2.33;;;;;;;;;;6150326;23;20158;-85
2022/02/04 13:58:53;;;;;;;7.97;3.60;;;;;;;;;;6152071;23;20182;-82
2022/02/04 14:02:15;;;;;;;2.80;2.10;;;;;;;;;;6123342;23;20173;-84
2022/02/04 14:05:40;;;;;;;3.43;2.10;;;;;;;;;;6132939;23;20158;-86
2022/02/04 14:08:55;;;;;;;3.43;2.70;;;;;;;;;;6132928;23;20154;-85
2022/02/04 14:12:13;;;;;;;3.00;2.27;;;;;;;;;;6140018;23;20169;-85
2022/02/04 14:15:26;;;;;;;3.30;2.80;;;;;;;;;;6132684;23;20157;-85
2022/02/04 14:18:32;;;;;;;3.50;2.47;;;;;;;;;;6150362;23;20185;-85
2022/02/04 14:21:36;;;;;;;3.77;2.53;;;;;;;;;;6150554;23;20153;-85
2022/02/04 14:24:40;;;;;;;4.63;2.13;;;;;;;;;;6132554;23;20153;-86
2022/02/04 14:27:48;;;;;;;3.93;2.33;;;;;;;;;;6133188;23;20158;-85
2022/02/04 14:31:00;;;;;;;3.63;2.60;;;;;;;;;;6107857;23;20200;-85
2022/02/04 14:53:59;;;;;;;3.20;2.43;;;;;;;;;;6133958;23;20154;-85
2022/02/04 15:00:41;;;;;;;3.03;2.40;;;;;;;;;;6132491;23;20534;-86
2022/02/04 15:04:02;;;;;;;4.37;3.03;;;;;;;;;;6126034;23;20666;-86
2022/02/04 15:07:08;;;;;;;3.17;2.80;;;;;;;;;;6142093;23;20178;-86
2022/02/04 15:10:27;;;;;;;6.10;3.40;;;;;;;;;;6129951;23;20185;-85
2022/02/04 15:13:32;;;;;;;12.03;6.90;;;;;;;;;;6124928;23;20173;-86
2022/02/04 15:16:37;;;;;;;5.03;4.10;;;;;;;;;;6152225;23;20464;-86
2022/02/04 15:19:43;;;;;;;4.23;3.47;;;;;;;;;;6148924;23;20201;-85
2022/02/04 15:22:47;;;;;;;5.93;3.43;;;;;;;;;;6133779;23;20153;-85
2022/02/04 15:25:55;;;;;;;4.77;3.60;;;;;;;;;;6133508;23;20158;-85
2022/02/04 15:29:09;;;;;;;6.50;4.77;;;;;;;;;;6132427;23;20153;-85
2022/02/04 15:32:13;;;;;;;6.30;4.43;;;;;;;;;;6133444;23;20653;-85
2022/02/04 15:35:18;;;;;;;6.27;3.83;;;;;;;;;;6140551;23;20168;-85
2022/02/04 15:38:22;;;;;;;4.77;3.67;;;;;;;;;;6150924;23;20188;-85
2022/02/04 15:41:28;;;;;;;4.30;3.60;;;;;;;;;;6130167;23;20193;-86
2022/02/04 15:47:52;;;;;;;5.13;3.83;;;;;;;;;;6136103;23;20599;-86
2022/02/04 15:51:46;;;;;;;5.30;3.83;;;;;;;;;;6112246;23;20190;-86
2022/02/04 16:04:42;;;;;;;5.07;3.80;;;;;;;;;;6090632;23;20177;-86
2022/02/04 16:07:46;;;;;;;3.93;3.50;;;;;;;;;;6133188;23;20157;-85
2022/02/04 16:14:19;;;;;;;4.67;3.43;;;;;;;;;;6133980;23;20158;-86
2022/02/04 16:17:29;;;;;;;3.97;3.23;;;;;;;;;;6116219;23;20162;-84
2022/02/04 16:23:58;;;;;;;8.17;4.90;;;;;;;;;;6131978;23;20158;-85
2022/02/04 16:30:33;;;;;;;5.30;3.57;;;;;;;;;;6117418;23;20201;-86
2022/02/04 16:33:37;;;;;;;7.17;3.70;;;;;;;;;;6133096;23;20479;-87
2022/02/04 16:36:44;;;;;;;8.43;5.73;;;;;;;;;;6115746;23;20602;-86
2022/02/04 16:39:48;;;;;;;6.80;5.60;;;;;;;;;;6139531;23;20193;-86
2022/02/04 16:42:53;;;;;;;9.87;7.73;;;;;;;;;;6149689;23;20154;-86
2022/02/04 16:45:57;;;;;;;6.10;4.10;;;;;;;;;;6132876;23;20154;-86
2022/02/04 16:49:01;;;;;;;5.73;4.10;;;;;;;;;;6133277;23;20154;-86
2022/02/04 16:52:06;;;;;;;5.10;4.20;;;;;;;;;;6108731;23;20192;-86
2022/02/04 16:55:10;;;;;;;3.80;2.50;;;;;;;;;;6116655;23;20158;-86
2022/02/04 16:58:14;;;;;;;3.73;2.90;;;;;;;;;;6124013;23;20174;-87
2022/02/04 17:01:20;;;;;;;3.70;2.80;;;;;;;;;;6140111;23;20530;-87
2022/02/04 17:04:24;;;;;;;3.10;2.70;;;;;;;;;;6106799;23;20174;-86
2022/02/04 17:07:29;;;;;;;3.13;2.53;;;;;;;;;;6105831;23;20173;-87
2022/02/04 17:10:35;;;;;;;3.07;2.50;;;;;;;;;;6164827;23;20185;-87
2022/02/04 17:13:40;;;;;;;3.10;2.50;;;;;;;;;;6116314;23;20154;-86
2022/02/04 17:16:44;;;;;;;5.53;2.40;;;;;;;;;;6122527;23;20169;-86
2022/02/04 17:20:00;;;;;;;3.80;3.10;;;;;;;;;;6139715;23;20650;-86
2022/02/04 17:23:08;;;;;;;4.37;3.80;;;;;;;;;;6132447;23;20586;-86
2022/02/04 17:26:15;;;;;;;4.30;3.20;;;;;;;;;;6115598;23;20158;-87
2022/02/04 17:29:20;;;;;;;4.17;3.20;;;;;;;;;;6115589;23;20464;-87
2022/02/04 17:32:25;;;;;;;4.03;2.50;;;;;;;;;;6122817;23;20197;-87
2022/02/04 17:35:29;;;;;;;3.63;2.63;;;;;;;;;;6106832;23;20169;-86
2022/02/04 17:38:34;;;;;;;8.00;3.97;;;;;;;;;;6150022;23;20157;-86
2022/02/04 17:41:40;;;;;;;13.30;4.10;;;;;;;;;;6144661;23;20193;-87
2022/02/04 17:44:44;;;;;;;20.30;8.50;;;;;;;;;;6138683;23;20153;-86
2022/02/04 17:48:04;;;;;;;10.63;5.07;;;;;;;;;;6157012;23;20157;-85
2022/02/04 17:51:21;;;;;;;6.67;3.20;;;;;;;;;;6136367;23;20189;-86
2022/02/04 17:54:35;;;;;;;9.20;4.73;;;;;;;;;;6112615;23;20169;-85
2022/02/04 17:57:43;;;;;;;19.23;7.70;;;;;;;;;;6112991;23;20174;-87
2022/02/04 18:07:24;;;;;;;32.53;12.60;;;;;;;;;;6138200;23;20158;-85
2022/02/04 18:10:28;;;;;;;23.40;9.33;;;;;;;;;;6135140;23;20186;-84
2022/02/04 18:13:33;;;;;;;15.10;6.83;;;;;;;;;;6122145;23;20173;-85
2022/02/04 18:16:37;;;;;;;49.00;20.40;;;;;;;;;;6139672;23;20173;-84
2022/02/04 18:19:41;;;;;;;43.67;18.03;;;;;;;;;;6149936;23;20182;-85
2022/02/04 18:22:45;;;;;;;14.50;6.83;;;;;;;;;;6109616;23;20173;-84
2022/02/04 18:25:51;;;;;;;5.83;3.00;;;;;;;;;;6135588;23;20154;-84
2022/02/04 18:28:56;;;;;;;3.87;2.80;;;;;;;;;;6142321;23;20506;-84
2022/02/04 18:32:00;;;;;;;3.73;2.63;;;;;;;;;;6141800;23;20193;-85
2022/02/04 18:35:05;;;;;;;3.43;2.47;;;;;;;;;;6118294;23;20158;-85
2022/02/04 18:41:47;;;;;;;3.90;1.93;;;;;;;;;;6129908;23;20658;-85
2022/02/04 18:44:58;;;;;;;2.20;2.00;;;;;;;;;;6133838;23;20157;-84
2022/02/04 18:48:04;;;;;;;2.37;1.80;;;;;;;;;;6117514;23;20157;-85
2022/02/04 18:57:26;;;;;;;2.97;2.53;;;;;;;;;;6150150;23;20149;-84
2022/02/04 19:00:30;;;;;;;8.93;7.27;;;;;;;;;;6116122;23;20650;-84
2022/02/04 19:03:43;;;;;;;6.87;6.27;;;;;;;;;;6124319;23;20173;-85
2022/02/04 19:06:54;;;;;;;5.73;3.70;;;;;;;;;;6133864;23;20154;-84
2022/02/04 19:09:58;;;;;;;2.93;2.63;;;;;;;;;;6151426;23;20154;-86
2022/02/04 19:13:08;;;;;;;2.77;2.20;;;;;;;;;;6138750;23;20483;-85
2022/02/04 19:16:27;;;;;;;2.40;2.20;;;;;;;;;;6113011;23;20177;-85
2022/02/04 19:22:54;;;;;;;4.07;2.50;;;;;;;;;;6141562;23;20158;-85
2022/02/04 19:26:01;;;;;;;3.63;2.70;;;;;;;;;;6119077;23;20153;-86
2022/02/04 19:29:07;;;;;;;5.57;2.63;;;;;;;;;;6134520;23;20193;-86
2022/02/04 19:32:12;;;;;;;3.17;2.47;;;;;;;;;;6107887;23;20197;-87
2022/02/04 19:35:16;;;;;;;3.00;2.17;;;;;;;;;;6133403;23;20153;-86
2022/02/04 19:38:21;;;;;;;2.70;2.23;;;;;;;;;;6150044;23;20494;-86
2022/02/04 19:41:28;;;;;;;2.17;1.80;;;;;;;;;;6128132;23;20201;-86
2022/02/04 19:44:35;;;;;;;5.13;2.10;;;;;;;;;;6140861;23;20503;-86
2022/02/04 19:47:48;;;;;;;4.23;2.07;;;;;;;;;;6108087;23;20173;-86
2022/02/04 20:24:50;;;;;;;1.40;1.10;;;;;;;;;;6133509;23;20153;-86
2022/02/04 20:27:59;;;;;;;1.13;0.93;;;;;;;;;;6149733;23;20158;-86
2022/02/04 20:31:04;;;;;;;1.00;0.90;;;;;;;;;;6157106;23;20193;-86
2022/02/04 20:34:08;;;;;;;1.10;1.00;;;;;;;;;;6115731;23;20161;-85
2022/02/04 20:37:12;;;;;;;1.40;1.10;;;;;;;;;;6150050;23;20158;-86
2022/02/04 20:40:39;;;;;;;1.70;0.90;;;;;;;;;;6131771;23;20185;-86
2022/02/04 20:43:41;;;;;;;2.10;1.13;;;;;;;;;;6167716;23;20158;-86
2022/02/04 20:46:47;;;;;;;1.60;1.00;;;;;;;;;;6116192;23;20158;-87
2022/02/04 20:49:52;;;;;;;1.50;1.20;;;;;;;;;;6116297;23;20153;-86
2022/02/04 20:53:00;;;;;;;1.00;0.90;;;;;;;;;;6133293;23;20158;-86
2022/02/04 20:56:07;;;;;;;1.13;0.90;;;;;;;;;;6132084;23;20158;-86
2022/02/04 20:59:11;;;;;;;1.40;1.10;;;;;;;;;;6149583;23;20161;-86
2022/02/04 21:02:15;;;;;;;1.07;0.80;;;;;;;;;;6157322;23;20193;-86
2022/02/04 21:05:24;;;;;;;1.10;0.80;;;;;;;;;;6149718;23;20158;-87
2022/02/04 21:15:15;;;;;;;1.80;0.97;;;;;;;;;;6167591;23;20158;-86
2022/02/04 21:18:22;;;;;;;0.90;0.80;;;;;;;;;;6133274;23;20597;-86
2022/02/04 21:21:26;;;;;;;1.03;0.80;;;;;;;;;;6125989;23;20201;-86
2022/02/04 21:24:30;;;;;;;1.80;0.70;;;;;;;;;;6114750;23;20158;-86
2022/02/04 21:27:37;;;;;;;0.60;0.60;;;;;;;;;;6132155;23;20153;-85
2022/02/04 21:30:45;;;;;;;0.70;0.70;;;;;;;;;;6119556;23;20201;-85
2022/02/04 21:37:03;;;;;;;0.80;0.70;;;;;;;;;;6102629;23;20473;-85
2022/02/04 21:40:10;;;;;;;1.27;0.90;;;;;;;;;;6119355;23;20181;-85
2022/02/04 21:43:13;;;;;;;1.10;0.67;;;;;;;;;;6057242;23;20155;-85
2022/02/04 21:46:25;;;;;;;0.73;0.70;;;;;;;;;;6090157;23;20155;-85
2022/02/04 21:49:34;;;;;;;1.37;0.70;;;;;;;;;;6057481;23;20163;-85
2022/02/04 21:52:38;;;;;;;0.67;0.67;;;;;;;;;;6081310;23;20190;-85
2022/02/04 21:55:45;;;;;;;0.53;0.53;;;;;;;;;;6075267;23;20155;-85
2022/02/04 21:58:50;;;;;;;0.77;0.70;;;;;;;;;;6075517;23;20600;-85
2022/02/04 22:01:54;;;;;;;1.10;0.90;;;;;;;;;;6053573;23;20202;-86
2022/02/04 22:05:01;;;;;;;1.00;0.90;;;;;;;;;;6075643;23;20163;-85
2022/02/04 22:08:11;;;;;;;1.43;1.00;;;;;;;;;;6091742;23;20155;-85
2022/02/04 22:22:01;;;;;;;1.97;1.20;;;;;;;;;;6075074;23;20621;-85
2022/02/04 22:24:48;;;;;;;2.60;1.37;;;;;;;;;;6091766;23;20588;-85
2022/02/04 22:27:52;;;;;;;1.50;0.90;;;;;;;;;;6065455;23;20171;-85
2022/02/04 22:30:57;;;;;;;1.17;0.80;;;;;;;;;;6072896;23;20198;-85
2022/02/04 22:50:40;;;;;;;1.10;0.80;;;;;;;;;;6091033;23;20155;-85
2022/02/04 22:57:08;;;;;;;2.47;1.00;;;;;;;;;;6091879;23;20617;-85
2022/02/04 23:00:33;;;;;;;1.83;1.20;;;;;;;;;;6058165;23;20159;-85
2022/02/04 23:03:43;;;;;;;1.40;1.07;;;;;;;;;;6058432;23;20163;-85
2022/02/04 23:06:48;;;;;;;3.00;1.00;;;;;;;;;;6058073;23;20159;-85
2022/02/04 23:09:56;;;;;;;1.27;0.90;;;;;;;;;;6058322;23;20159;-85
2022/02/04 23:13:05;;;;;;;3.63;1.20;;;;;;;;;;6074698;23;20160;-85
2022/02/04 23:16:16;;;;;;;1.50;1.27;;;;;;;;;;6091159;23;20159;-85
2022/02/04 23:19:30;;;;;;;1.40;0.90;;;;;;;;;;6074277;23;20500;-85
2022/02/04 23:22:58;;;;;;;2.20;1.40;;;;;;;;;;6082618;23;20668;-85
2022/02/04 23:26:12;;;;;;;1.17;0.90;;;;;;;;;;6074552;23;20159;-85
2022/02/04 23:46:10;;;;;;;1.90;1.00;;;;;;;;;;6074394;23;20159;-85
2022/02/04 23:52:37;;;;;;;2.87;1.50;;;;;;;;;;6065528;23;20190;-85
2022/02/04 23:55:42;;;;;;;3.37;1.33;;;;;;;;;;6057775;23;20155;-85
2022/02/04 23:58:57;;;;;;;3.47;1.27;;;;;;;;;;6074423;23;20161;-85
